Weather History for Staunton, VA

Change the Weather History Date:

Friday, September 6, 2013

  Actual Average Record
Temperature  
Mean Temperature 62 °F -  
Max Temperature 72 °F 80 °F 96 °F (1998)
Min Temperature 51 °F 57 °F 46 °F (2010)
Degree Days  
Heating Degree Days 4    
Growing Degree Days 12 (Base 50)    
Moisture  
Dew Point 50 °F    
Average Humidity 67    
Maximum Humidity 92    
Minimum Humidity 40    
Precipitation  
Precipitation 0.00 in - - ()
Sea Level Pressure  
Sea Level Pressure 30.23 in    
Wind  
Wind Speed 2 mph (NE)    
Max Wind Speed 6 mph    
Max Gust Speed -    
Visibility 10 miles    
Events      
Averages and records for this station are not official NWS values.
T = Trace of Precipitation, MM = Missing Value Source: NWS Daily Summary

Daily Weather History Graph

Daily Weather History Graph

Search for Another Location

Airport:

Trip Planner

Search our weather history database for the weather conditions in past years. The results will help you decide how hot, cold, wet, or windy it might be!

Date:

Astronomy

Sep. 06, 2013 Rise Set
Actual Time 6:49 AM EDT 7:37 PM EDT
Civil Twilight 6:22 AM EDT 8:04 PM EDT
Nautical Twilight 5:51 AM EDT 8:35 PM EDT
Astronomical Twilight 5:18 AM EDT 9:08 PM EDT
Moon 7:58 AM EDT (9/6) 8:02 PM EDT (9/6)
Length of Visible Light 13h 41m
Length of Day
12h 47m
New Moon, 1% of the Moon is Illuminated
Sep 6
New Moon
Sep 12
First Quarter
Sep 19
Full
Sep 26
Last Quarter
Oct 4
New

Hourly Weather History & Observations

Time (EDT) Temp. Dew Point Humidity Pressure Visibility Wind Dir Wind Speed Gust Speed Precip Events Conditions
12:15 AM 64.8 °F 53.2 °F 66% 30.19 in 10.0 mi North 3.5 mph - N/A   Clear
12:35 AM 63.1 °F 53.1 °F 70% 30.20 in 10.0 mi Calm Calm - N/A   Clear
12:55 AM 59.9 °F 53.6 °F 80% 30.21 in 10.0 mi Calm Calm - N/A   Clear
1:15 AM 59.0 °F 53.6 °F 82% 30.21 in 10.0 mi Calm Calm - N/A   Scattered Clouds
1:35 AM 58.6 °F 53.2 °F 82% 30.21 in 10.0 mi Calm Calm - N/A   Scattered Clouds
1:55 AM 57.9 °F 53.2 °F 84% 30.22 in 10.0 mi Calm Calm - N/A   Scattered Clouds
2:15 AM 59.5 °F 53.2 °F 80% 30.21 in 10.0 mi Calm Calm - N/A   Scattered Clouds
2:35 AM 57.9 °F 52.7 °F 83% 30.21 in 10.0 mi NE 3.5 mph - N/A   Scattered Clouds
2:55 AM 59.4 °F 53.6 °F 81% 30.21 in 10.0 mi North 4.6 mph - N/A   Clear
3:15 AM 59.4 °F 53.6 °F 81% 30.21 in 10.0 mi North 4.6 mph - N/A   Clear
3:35 AM 58.3 °F 52.9 °F 82% 30.22 in 10.0 mi Calm Calm - N/A   Clear
3:55 AM 55.8 °F 51.8 °F 87% 30.22 in 10.0 mi Calm Calm - N/A   Clear
4:15 AM 54.9 °F 51.4 °F 88% 30.22 in 10.0 mi Calm Calm - N/A   Clear
4:35 AM 54.9 °F 51.6 °F 89% 30.22 in 10.0 mi Calm Calm - N/A   Clear
4:55 AM 55.4 °F 51.1 °F 85% 30.23 in 10.0 mi Calm Calm - N/A   Clear
5:15 AM 54.3 °F 50.7 °F 88% 30.24 in 10.0 mi Calm Calm - N/A   Clear
5:35 AM 53.4 °F 50.2 °F 89% 30.23 in 10.0 mi Calm Calm - N/A   Clear
5:55 AM 51.8 °F 49.3 °F 91% 30.24 in 7.0 mi Calm Calm - N/A   Clear
6:15 AM 51.4 °F 49.1 °F 92% 30.25 in 10.0 mi Calm Calm - N/A   Clear
6:35 AM 52.0 °F 48.6 °F 88% 30.25 in 10.0 mi Calm Calm - N/A   Clear
6:55 AM 52.2 °F 49.3 °F 90% 30.26 in 10.0 mi Calm Calm - N/A   Clear
7:15 AM 51.8 °F 48.7 °F 89% 30.27 in 10.0 mi North 3.5 mph - N/A   Clear
7:35 AM 55.4 °F 50.0 °F 82% 30.28 in 10.0 mi North 3.5 mph - N/A   Clear
7:55 AM 56.3 °F 50.0 °F 79% 30.28 in 10.0 mi North 3.5 mph - N/A   Clear
8:15 AM 56.7 °F 50.4 °F 79% 30.29 in 10.0 mi NE 3.5 mph - N/A   Clear
8:35 AM 57.2 °F 50.7 °F 79% 30.28 in 10.0 mi NE 4.6 mph - N/A   Clear
8:55 AM 58.1 °F 49.5 °F 73% 30.29 in 10.0 mi NE 4.6 mph - N/A   Clear
9:15 AM 59.4 °F 48.7 °F 68% 30.29 in 10.0 mi North 4.6 mph - N/A   Clear
9:35 AM 60.1 °F 48.9 °F 67% 30.29 in 10.0 mi NE 4.6 mph - N/A   Clear
9:55 AM 60.8 °F 49.3 °F 66% 30.29 in 10.0 mi NNE 5.8 mph - N/A   Clear
10:15 AM 62.1 °F 50.4 °F 65% 30.29 in 10.0 mi NNE 3.5 mph - N/A   Clear
10:35 AM 62.8 °F 49.3 °F 61% 30.28 in 10.0 mi ENE 3.5 mph - N/A   Clear
10:55 AM 63.5 °F 49.1 °F 59% 30.29 in 10.0 mi Calm Calm - N/A   Clear
11:15 AM 64.8 °F 48.4 °F 55% 30.29 in 10.0 mi Calm Calm - N/A   Clear
11:35 AM 65.7 °F 48.9 °F 55% 30.28 in 10.0 mi Calm Calm - N/A   Clear
11:55 AM 66.2 °F 49.5 °F 55% 30.28 in 10.0 mi Calm Calm - N/A   Clear
12:15 PM 66.9 °F 49.6 °F 54% 30.27 in 10.0 mi Calm Calm - N/A   Clear
12:35 PM 67.8 °F 50.7 °F 54% 30.27 in 10.0 mi Calm Calm - N/A   Clear
12:55 PM 69.1 °F 50.9 °F 52% 30.27 in 10.0 mi Calm Calm - N/A   Scattered Clouds
1:15 PM 69.3 °F 45.5 °F 42% 30.26 in 10.0 mi Calm Calm - N/A   Mostly Cloudy
1:35 PM 70.0 °F 48.4 °F 46% 30.25 in 10.0 mi Calm Calm - N/A   Scattered Clouds
1:55 PM 70.7 °F 49.3 °F 47% 30.25 in 10.0 mi North 4.6 mph - N/A   Clear
2:15 PM 71.4 °F 49.8 °F 46% 30.24 in 10.0 mi NNE 3.5 mph - N/A   Clear
2:35 PM 71.6 °F 48.0 °F 43% 30.23 in 10.0 mi North 4.6 mph - N/A   Clear
2:55 PM 72.5 °F 48.9 °F 43% 30.22 in 10.0 mi ENE 5.8 mph - N/A   Clear
3:15 PM 72.5 °F 49.5 °F 44% 30.21 in 10.0 mi NE 4.6 mph - N/A   Clear
3:35 PM 72.7 °F 48.6 °F 42% 30.21 in 10.0 mi Calm Calm - N/A   Clear
3:55 PM 72.5 °F 48.0 °F 42% 30.20 in 10.0 mi Calm Calm - N/A   Clear
4:15 PM 72.3 °F 47.3 °F 41% 30.19 in 10.0 mi Calm Calm - N/A   Clear
4:35 PM 72.9 °F 47.7 °F 41% 30.19 in 10.0 mi Calm Calm - N/A   Clear
4:55 PM 72.5 °F 47.5 °F 41% 30.19 in 10.0 mi ESE 4.6 mph - N/A   Clear
5:15 PM 72.5 °F 46.8 °F 40% 30.18 in 10.0 mi ENE 4.6 mph - N/A   Clear
5:35 PM 72.5 °F 47.1 °F 40% 30.18 in 10.0 mi Calm Calm - N/A   Clear
5:55 PM 72.5 °F 46.9 °F 40% 30.18 in 10.0 mi East 4.6 mph - N/A   Clear
6:15 PM 72.1 °F 47.1 °F 41% 30.18 in 10.0 mi Calm Calm - N/A   Clear
6:35 PM 71.8 °F 47.7 °F 42% 30.18 in 10.0 mi Calm Calm - N/A   Clear
6:55 PM 71.2 °F 47.3 °F 42% 30.17 in 10.0 mi Calm Calm - N/A   Clear
7:15 PM 70.9 °F 46.8 °F 42% 30.17 in 10.0 mi Calm Calm - N/A   Clear
7:35 PM 66.7 °F 52.0 °F 59% 30.18 in 10.0 mi SSE 4.6 mph - N/A   Clear
7:55 PM 66.2 °F 52.3 °F 61% 30.18 in 10.0 mi SE 3.5 mph - N/A   Clear
8:15 PM 64.2 °F 52.7 °F 66% 30.18 in 10.0 mi Calm Calm - N/A   Clear
8:35 PM 62.1 °F 53.1 °F 72% 30.18 in 10.0 mi SW 3.5 mph - N/A   Clear
8:55 PM 61.0 °F 52.9 °F 75% 30.19 in 10.0 mi Calm Calm - N/A   Clear
9:15 PM 59.5 °F 52.9 °F 79% 30.18 in 10.0 mi Calm Calm - N/A   Clear
9:35 PM 59.2 °F 52.9 °F 80% 30.19 in 10.0 mi Calm Calm - N/A   Clear
9:55 PM 58.1 °F 52.5 °F 82% 30.20 in 10.0 mi Calm Calm - N/A   Clear
10:15 PM 56.7 °F 52.9 °F 87% 30.19 in 10.0 mi Calm Calm - N/A   Clear
10:35 PM 57.6 °F 53.2 °F 85% 30.20 in 10.0 mi Calm Calm - N/A   Clear
10:55 PM 56.5 °F 52.0 °F 85% 30.19 in 10.0 mi Calm Calm - N/A   Clear
11:15 PM 54.5 °F 51.3 °F 89% 30.20 in 10.0 mi Calm Calm - N/A   Clear
11:35 PM 54.9 °F 51.6 °F 89% 30.20 in 10.0 mi Calm Calm - N/A   Clear
11:55 PM 55.4 °F 51.8 °F 88% 30.20 in 10.0 mi Calm Calm - N/A   Clear